Latest Weather Observations for Mount Crawford

IDS60901

Issued at 11:11 pm CDT Saturday 10 December 2016 (issued every 10 minutes, with the page automatically refreshed every 10 minutes)

About weather observations | Map of Adelaide area stations | Latest observations for Adelaide area | Other Formats
Station Details ID: 023878 Name: MOUNT CRAWFORD AWS Lat: -34.73 Lon: 138.93 Height: 525.0 m
Data from the previous 72 hours. | See also: Recent months at Mount Crawford
Date/Time
CDT
Temp
°C
App
Temp
°C
Dew
Point
°C
Rel
Hum
%
Delta-T
°C
Wind Press
QNH
hPa
Press
MSL
hPa
Rain since
9am
mm
Dir  Spd
km/h
Gust
km/h
Spd
kts
Gust
kts
10/11:00pm 9.5 4.1 9.4 99 0.1 SE 28 39 15 21 1022.5 1020.8 0.0
10/10:30pm 9.8 4.4 9.5 98 0.2 SE 28 39 15 21 1022.4 1020.7 0.0
10/10:00pm 10.1 4.9 9.0 93 0.6 SE 26 37 14 20 1022.4 1020.7 0.0
10/09:30pm 10.8 5.7 9.1 89 0.9 SE 26 32 14 17 1022.3 1020.6 0.0
10/09:00pm 11.6 6.5 9.2 85 1.2 SSE 26 33 14 18 1022.2 1020.5 0.0
10/08:30pm 12.5 7.8 9.1 80 1.8 SSE 24 32 13 17 1022.1 1020.4 0.0
10/08:00pm 14.0 8.8 9.0 72 2.6 SE 26 32 14 17 1021.9 1020.2 0.0
10/07:30pm 15.8 11.8 9.0 64 3.6 SE 20 32 11 17 1021.7 1019.9 0.0
10/07:00pm 17.2 13.2 8.9 58 4.4 SSE 20 28 11 15 1021.6 1019.8 0.0
10/06:30pm 18.9 14.8 8.6 51 5.5 SSE 20 26 11 14 1021.4 1019.6 0.0
10/06:00pm 20.0 15.7 8.0 46 6.3 SSE 20 32 11 17 1021.2 1019.4 0.0
10/05:30pm 21.5 17.8 8.1 42 7.2 SW 17 28 9 15 1021.3 1019.5 0.0
10/05:00pm 22.6 19.7 6.4 35 8.5 S 11 20 6 11 1021.4 1019.6 0.0
10/04:30pm 22.9 19.5 5.8 33 8.8 SSW 13 19 7 10 1021.7 1019.9 0.0
10/04:00pm 22.7 18.6 4.2 30 9.3 S 15 20 8 11 1021.8 1020.1 0.0
10/03:30pm 22.3 18.9 5.7 34 8.5 SW 13 20 7 11 1022.0 1020.3 0.0
10/03:00pm 22.2 19.2 6.0 35 8.4 NNW 11 20 6 11 1022.2 1020.5 0.0
10/02:30pm 21.5 17.4 4.6 33 8.5 WSW 15 28 8 15 1022.5 1020.8 0.0
10/02:00pm 21.8 18.7 7.2 39 7.7 WSW 13 20 7 11 1022.7 1021.0 0.0
10/01:30pm 20.4 16.9 5.6 38 7.5 WSW 13 22 7 12 1023.0 1021.3 0.0
10/01:00pm 20.2 17.6 7.9 45 6.5 SW 11 19 6 10 1023.2 1021.4 0.0
10/12:30pm 19.7 16.6 7.1 44 6.5 WNW 13 19 7 10 1023.4 1021.6 0.0
10/12:00pm 18.6 16.6 8.6 52 5.3 WNW 9 15 5 8 1023.6 1021.9 0.0
10/11:30am 18.3 16.3 8.6 53 5.1 NNW 9 15 5 8 1023.8 1022.1 0.0
10/11:00am 16.7 14.3 7.1 53 4.9 NNW 9 15 5 8 1023.9 1022.2 0.0
10/10:30am 15.8 13.1 7.3 57 4.3 NE 11 17 6 9 1023.8 1022.1 0.0
10/10:00am 14.7 10.6 8.0 64 3.4 NE 19 24 10 13 1023.7 1022.0 0.0
10/09:30am 14.0 10.0 8.4 69 2.9 ENE 19 24 10 13 1023.8 1022.1 0.0
10/09:00am 12.3 7.9 7.4 72 2.4 ENE 20 26 11 14 1023.9 1022.2 0.0
10/08:30am 11.6 7.7 7.3 75 2.1 ENE 17 22 9 12 1024.0 1022.3 0.0
10/08:00am 10.0 5.5 7.1 82 1.4 E 20 28 11 15 1023.6 1021.9 0.0
10/07:30am 8.6 4.0 6.7 88 0.9 E 20 26 11 14 1023.5 1021.8 0.0
10/07:00am 7.7 3.2 6.8 94 0.4 E 20 26 11 14 1023.2 1021.4 0.0
10/06:30am 6.7 2.1 6.6 99 0.0 E 20 26 11 14 1022.7 1021.0 0.0
10/06:00am 6.1 1.6 6.0 99 0.0 E 19 24 10 13 1022.5 1020.8 0.0
10/05:30am 6.3 1.6 6.2 99 0.0 E 20 26 11 14 1022.1 1020.4 0.0
10/05:00am 6.4 1.4 6.3 99 0.0 E 22 28 12 15 1021.7 1019.9 0.0
10/04:30am 6.4 1.4 6.3 99 0.0 ESE 22 26 12 14 1021.8 1020.1 0.0
10/04:00am 6.6 1.2 6.5 99 0.0 ESE 24 28 13 15 1021.8 1020.1 0.0
10/03:30am 6.8 1.9 6.7 99 0.0 ESE 22 28 12 15 1021.8 1020.1 0.0
10/03:00am 6.9 1.6 6.8 99 0.0 ESE 24 30 13 16 1021.8 1020.1 0.0
10/02:30am 7.1 1.8 7.0 99 0.0 ESE 24 30 13 16 1022.0 1020.3 0.0
10/02:00am 7.2 1.5 6.9 98 0.1 ESE 26 33 14 18 1021.8 1020.1 0.0
10/01:30am 7.2 1.9 6.8 97 0.2 ESE 24 32 13 17 1022.1 1020.4 0.0
10/01:00am 7.4 1.7 6.7 95 0.3 SE 26 32 14 17 1022.4 1020.7 0.0
10/12:30am 7.5 2.2 6.6 94 0.4 SE 24 33 13 18 1022.7 1021.0 0.0
10/12:00am 7.6 1.9 6.5 93 0.5 SE 26 32 14 17 1022.6 1020.9 0.0
 
Date/Time
CDT
Temp
°C
App
Temp
°C
Dew
Point
°C
Rel
Hum
%
Delta-T
°C
Wind Press
QNH
hPa
Press
MSL
hPa
Rain since
9am
mm
Dir  Spd
km/h
Gust
km/h
Spd
kts
Gust
kts
09/11:30pm 7.7 2.4 6.6 93 0.5 SE 24 33 13 18 1022.8 1021.1 0.0
09/11:00pm 8.0 2.3 6.5 90 0.7 SE 26 33 14 18 1022.9 1021.2 0.0
09/10:30pm 8.1 3.1 6.4 89 0.8 SE 22 30 12 16 1022.9 1021.2 0.0
09/10:00pm 8.5 3.0 6.1 85 1.1 SE 24 33 13 18 1022.8 1021.1 0.0
09/09:30pm 8.8 3.3 5.9 82 1.4 SE 24 35 13 19 1022.6 1020.9 0.0
09/09:00pm 9.4 4.3 5.9 79 1.6 SE 22 35 12 19 1022.5 1020.8 0.0
09/08:30pm 10.1 4.2 5.9 75 2.0 SSE 26 35 14 19 1022.2 1020.5 0.0
09/08:00pm 11.2 6.1 6.1 71 2.5 SSE 22 30 12 16 1022.1 1020.4 0.0
09/07:30pm 12.5 8.0 6.1 65 3.1 SE 19 26 10 14 1021.8 1020.1 0.0
09/07:00pm 13.8 9.8 6.7 62 3.5 SSE 17 26 9 14 1021.5 1019.7 0.0
09/06:30pm 14.6 10.3 6.9 60 3.9 SSE 19 24 10 13 1021.2 1019.4 0.0
09/06:00pm 14.9 10.5 6.5 57 4.2 SE 19 30 10 16 1020.9 1019.2 0.0
09/05:30pm 15.6 11.0 6.3 54 4.6 SSE 20 32 11 17 1020.8 1019.1 0.0
09/05:00pm 16.7 12.4 7.1 53 4.9 SE 19 24 10 13 1021.0 1019.3 0.0
09/04:30pm 15.7 11.9 5.9 52 4.8 SSE 15 24 8 13 1021.0 1019.3 0.0
09/04:00pm 16.1 12.0 6.3 52 4.9 SSE 17 24 9 13 1021.2 1019.4 0.0
09/03:30pm 16.5 12.3 7.4 55 4.7 SSE 19 28 10 15 1021.2 1019.4 0.0
09/03:00pm 16.4 12.2 7.6 56 4.5 SSW 19 30 10 16 1021.2 1019.4 0.0
09/02:30pm 15.6 11.7 5.5 51 4.9 S 15 24 8 13 1021.4 1019.6 0.0
09/02:00pm 15.8 11.7 6.0 52 4.9 SSW 17 28 9 15 1021.6 1019.8 0.0
09/01:30pm 15.3 11.8 7.3 59 4.1 S 15 35 8 19 1021.7 1019.9 0.0
09/01:00pm 14.3 9.5 4.6 52 4.6 S 19 28 10 15 1021.9 1020.2 0.0
09/12:30pm 14.7 10.2 6.3 57 4.2 S 19 32 10 17 1021.9 1020.2 0.0
09/12:00pm 12.8 8.7 6.2 64 3.2 SSW 17 24 9 13 1022.0 1020.3 0.0
09/11:30am 12.4 9.4 5.8 64 3.2 S 11 19 6 10 1022.1 1020.4 0.0
09/11:00am 11.3 7.2 6.4 72 2.4 SSW 17 24 9 13 1022.0 1020.3 0.0
09/10:30am 10.9 7.2 6.1 72 2.3 SSW 15 28 8 15 1021.9 1020.2 0.0
09/10:00am 10.4 7.9 6.5 77 1.9 SSE 9 15 5 8 1022.0 1020.3 0.0
09/09:30am 9.8 5.6 5.6 75 2.0 SSW 17 22 9 12 1021.7 1019.9 0.0
09/09:00am 9.8 5.5 5.4 74 2.1 SSW 17 24 9 13 1021.4 1019.6 0.8
09/08:30am 9.7 6.2 5.5 75 2.0 SSW 13 20 7 11 1020.9 1019.2 0.8
09/08:00am 9.2 6.1 5.6 78 1.7 SSW 11 17 6 9 1020.6 1018.9 0.8
09/07:30am 8.7 5.9 5.3 79 1.6 SW 9 11 5 6 1020.1 1018.4 0.8
09/07:00am 8.2 5.4 5.3 82 1.3 SW 9 13 5 7 1019.6 1017.8 0.8
09/06:30am 8.0 4.4 4.8 80 1.5 WSW 13 22 7 12 1019.2 1017.4 0.8
09/06:00am 7.7 4.4 4.8 82 1.3 WSW 11 15 6 8 1018.6 1016.9 0.8
09/05:30am 7.4 4.1 4.5 82 1.3 SW 11 17 6 9 1018.2 1016.4 0.8
09/05:00am 7.3 4.1 5.1 86 1.0 SW 11 17 6 9 1018.0 1016.2 0.8
09/04:30am 7.8 4.3 5.4 85 1.1 SW 13 20 7 11 1017.6 1015.8 0.8
09/04:00am 7.9 4.7 5.2 83 1.2 WSW 11 19 6 10 1017.2 1015.4 0.8
09/03:30am 7.6 4.0 5.2 85 1.1 WSW 13 17 7 9 1016.9 1015.2 0.8
09/03:00am 7.8 3.8 4.7 81 1.4 SW 15 26 8 14 1016.6 1014.8 0.8
09/02:30am 7.6 2.8 5.6 87 0.9 SW 20 28 11 15 1016.5 1014.7 0.8
09/02:00am 7.6 2.9 5.9 89 0.8 SW 20 30 11 16 1016.5 1014.7 0.8
09/01:30am 7.7 3.6 6.2 90 0.7 SW 17 24 9 13 1016.5 1014.7 0.8
09/01:00am 8.1 3.2 6.9 92 0.6 SSW 22 35 12 19 1016.3 1014.5 0.8
09/12:30am 8.3 4.0 7.2 93 0.5 SSW 19 35 10 19 1016.3 1014.5 0.8
09/12:00am 8.0 4.8 6.9 93 0.5 SW 13 19 7 10 1016.4 1014.6 0.8
 
Date/Time
CDT
Temp
°C
App
Temp
°C
Dew
Point
°C
Rel
Hum
%
Delta-T
°C
Wind Press
QNH
hPa
Press
MSL
hPa
Rain since
9am
mm
Dir  Spd
km/h
Gust
km/h
Spd
kts
Gust
kts
08/11:30pm 8.5 4.5 6.8 89 0.8 SW 17 26 9 14 1016.5 1014.7 0.8
08/11:00pm 8.9 5.0 7.0 88 0.9 SW 17 24 9 13 1016.4 1014.6 0.8
08/10:30pm 9.3 4.8 7.1 86 1.1 SW 20 30 11 16 1016.2 1014.4 0.8
08/10:00pm 9.1 4.8 7.1 87 1.0 WSW 19 28 10 15 1015.8 1014.0 0.8
08/09:30pm 9.2 5.3 7.0 86 1.1 SW 17 22 9 12 1015.2 1013.4 0.8
08/09:00pm 9.8 5.6 7.4 85 1.2 WSW 19 32 10 17 1014.8 1013.0 0.8
08/08:30pm 9.8 5.8 9.2 96 0.3 WSW 20 30 11 16 1014.3 1012.5 0.8
08/08:00pm 9.9 6.1 9.8 99 0.1 WSW 20 33 11 18 1014.0 1012.2 0.8
08/07:30pm 9.8 5.2 9.7 99 0.1 WSW 24 35 13 19 1013.4 1011.5 0.8
08/07:00pm 10.1 5.4 9.3 95 0.4 WSW 24 41 13 22 1012.7 1010.9 0.6
08/06:30pm 11.2 7.4 9.8 91 0.7 WSW 20 33 11 18 1012.1 1010.3 0.4
08/06:00pm 10.3 4.9 9.5 95 0.4 SW 28 46 15 25 1011.6 1009.7 0.4
08/05:30pm 12.7 8.5 9.7 82 1.6 WSW 22 43 12 23 1011.3 1009.4 0.2
08/05:01pm 12.4 6.0 8.7 78 1.9 WSW 32 50 17 27 1010.8 1009.0 0.2
08/05:00pm 12.5 5.9 8.4 76 2.1 WSW 33 50 18 27 1010.8 1009.0 0.2
08/04:30pm 13.7 6.6 6.6 62 3.5 WSW 33 54 18 29 1010.2 1008.4 0.2
08/04:02pm 14.2 6.7 6.3 59 3.9 WSW 35 54 19 29 1009.9 1008.0 0.2
08/04:00pm 14.2 6.3 6.3 59 3.9 WSW 37 54 20 29 1009.8 1007.9 0.2
08/03:30pm 14.0 6.6 6.6 61 3.7 WSW 35 56 19 30 1009.7 1007.8 0.2
08/03:00pm 14.9 6.0 6.7 58 4.1 WSW 43 63 23 34 1009.3 1007.4 0.2
08/02:30pm 13.8 5.0 5.4 57 4.1 WSW 41 69 22 37 1009.3 1007.4 0.2
08/02:00pm 13.9 5.0 6.7 62 3.6 WSW 43 67 23 36 1009.6 1007.7 0.2
08/01:30pm 15.4 5.6 5.3 51 4.9 W 46 69 25 37 1009.3 1007.4 0.2
08/01:00pm 14.0 4.7 5.1 55 4.3 WSW 43 69 23 37 1008.7 1006.9 0.2
08/12:30pm 14.9 5.6 7.5 61 3.8 WSW 46 70 25 38 1008.3 1006.4 0.0
08/12:00pm 13.8 4.4 7.3 65 3.3 W 46 65 25 35 1008.1 1006.2 0.0
08/11:30am 13.1 4.5 8.2 72 2.5 W 43 76 23 41 1007.9 1006.0 0.0
08/11:00am 13.0 5.4 7.5 69 2.8 W 37 63 20 34 1007.7 1005.8 0.0
08/10:30am 13.5 4.8 7.5 67 3.0 W 43 67 23 36 1007.1 1005.2 0.0
08/10:00am 12.9 5.3 9.0 77 2.0 W 39 57 21 31 1007.0 1005.1 0.0
08/09:30am 11.6 2.7 9.2 85 1.2 W 46 70 25 38 1006.5 1004.6 0.0
08/09:00am 11.5 3.1 8.9 84 1.3 W 43 67 23 36 1006.2 1004.3 21.8
08/08:30am 11.3 3.3 9.0 86 1.2 W 41 67 22 36 1006.1 1004.2 21.8
08/08:00am 11.1 3.9 9.0 87 1.1 W 37 61 20 33 1005.7 1003.8 21.8
08/07:30am 10.7 3.2 9.3 91 0.7 W 39 67 21 36 1005.1 1003.2 21.8
08/07:09am 10.4 4.1 9.6 95 0.4 W 33 54 18 29 1004.8 1002.9 21.8
08/07:00am 10.4 3.7 9.8 96 0.3 W 35 50 19 27 1004.6 1002.7 21.8
08/06:30am 10.3 2.2 10.0 98 0.2 W 43 61 23 33 1003.8 1001.9 21.8
08/06:01am 10.1 3.1 10.0 99 0.1 W 37 56 20 30 1003.4 1001.5 21.8
08/06:00am 10.1 2.7 10.0 99 0.1 W 39 56 21 30 1003.4 1001.5 21.8
08/05:30am 10.4 3.9 10.4 100 0.0 W 35 57 19 31 1003.4 1001.5 21.8
08/05:00am 11.5 4.2 11.5 100 0.0 WSW 41 65 22 35 1003.2 1001.2 21.8
08/04:38am 12.4 6.5 12.4 100 0.0 W 35 59 19 32 1002.4 1000.5 21.4
08/04:30am 13.2 7.9 13.2 100 0.0 W 33 48 18 26 1002.5 1000.6 21.2
08/04:01am 13.3 7.7 13.3 100 0.0 W 35 56 19 30 1002.4 1000.5 21.2
08/04:00am 13.4 7.8 13.4 100 0.0 W 35 50 19 27 1002.5 1000.6 21.2
08/03:32am 14.5 7.8 14.5 100 0.0 W 43 61 23 33 1002.4 1000.5 18.4
08/03:30am 14.5 7.6 14.5 100 0.0 W 44 61 24 33 1002.3 1000.4 17.2
08/03:01am 15.4 10.1 15.4 100 0.0 WNW 37 61 20 33 1002.2 1000.3 15.2
08/03:00am 15.5 10.7 15.5 100 0.0 WNW 35 52 19 28 1002.1 1000.2 15.2
08/02:35am 16.4 12.9 16.4 100 0.0 WNW 30 48 16 26 1002.0 1000.1 14.2
08/02:30am 16.4 12.9 16.4 100 0.0 WNW 30 41 16 22 1002.1 1000.2 14.2
08/02:00am 17.5 13.1 17.5 100 0.0 NW 37 56 20 30 1002.1 1000.2 12.6
08/01:30am 17.3 12.0 17.3 100 0.0 WNW 41 61 22 33 1002.6 1000.7 8.6
08/01:00am 17.6 12.4 17.4 99 0.1 WNW 41 61 22 33 1002.8 1000.9 5.8
08/12:43am 18.2 13.6 16.0 87 1.3 NW 35 61 19 33 1003.0 1001.0 4.0
08/12:30am 21.3 16.5 14.0 63 4.4 NNW 32 43 17 23 1001.5 999.5 2.2
08/12:09am 22.7 17.6 13.2 55 5.6 NNW 32 52 17 28 1001.8 999.9 1.6
08/12:00am 23.4 17.6 12.7 51 6.3 N 35 48 19 26 1001.5 999.5 1.6
 
Date/Time
CDT
Temp
°C
App
Temp
°C
Dew
Point
°C
Rel
Hum
%
Delta-T
°C
Wind Press
QNH
hPa
Press
MSL
hPa
Rain since
9am
mm
Dir  Spd
km/h
Gust
km/h
Spd
kts
Gust
kts
07/11:30pm 20.6 17.9 14.7 69 3.6 NNE 22 37 12 20 1001.1 999.1 1.6
07/11:21pm 19.8 17.9 15.2 75 2.8 NNE 19 24 10 13 1001.5 999.5 1.6

Latest Capital City Observations: Canberra | Sydney | Melbourne | Brisbane | Adelaide | Perth | Hobart | Darwin

Other Formats:

Comma delimited format used in spreadsheet applications
http://www.bom.gov.au/fwo/IDS60901/IDS60901.94678.axf

JavaScript Object Notation format (JSON) in row-major order
http://www.bom.gov.au/fwo/IDS60901/IDS60901.94678.json